sensor_id;sensor_type;location;lat;lon;timestamp;P1;durP1;ratioP1;P2;durP2;ratioP2
43841;SDS011;29495;49.970;20.842;2022-08-21T00:02:01;5.07;;;3.90;;
43841;SDS011;29495;49.970;20.842;2022-08-21T00:04:27;4.78;;;3.92;;
43841;SDS011;29495;49.970;20.842;2022-08-21T00:06:53;8.43;;;4.07;;
43841;SDS011;29495;49.970;20.842;2022-08-21T00:09:19;5.32;;;4.22;;
43841;SDS011;29495;49.970;20.842;2022-08-21T00:11:45;4.18;;;3.47;;
43841;SDS011;29495;49.970;20.842;2022-08-21T00:14:13;5.15;;;3.85;;
43841;SDS011;29495;49.970;20.842;2022-08-21T00:16:39;5.32;;;3.72;;
43841;SDS011;29495;49.970;20.842;2022-08-21T00:19:06;5.63;;;4.10;;
43841;SDS011;29495;49.970;20.842;2022-08-21T00:21:32;5.40;;;3.60;;
43841;SDS011;29495;49.970;20.842;2022-08-21T00:23:59;5.38;;;3.75;;
43841;SDS011;29495;49.970;20.842;2022-08-21T00:26:26;5.97;;;4.30;;
43841;SDS011;29495;49.970;20.842;2022-08-21T00:28:52;5.65;;;3.63;;
43841;SDS011;29495;49.970;20.842;2022-08-21T00:31:18;4.95;;;3.50;;
43841;SDS011;29495;49.970;20.842;2022-08-21T00:33:45;5.38;;;3.97;;
43841;SDS011;29495;49.970;20.842;2022-08-21T00:36:11;5.30;;;3.42;;
43841;SDS011;29495;49.970;20.842;2022-08-21T00:38:38;5.25;;;4.20;;
43841;SDS011;29495;49.970;20.842;2022-08-21T00:41:05;5.97;;;4.05;;
43841;SDS011;29495;49.970;20.842;2022-08-21T00:43:35;4.20;;;3.50;;
43841;SDS011;29495;49.970;20.842;2022-08-21T00:46:03;5.57;;;4.07;;
43841;SDS011;29495;49.970;20.842;2022-08-21T00:48:31;4.93;;;3.97;;
43841;SDS011;29495;49.970;20.842;2022-08-21T00:51:05;4.88;;;4.20;;
43841;SDS011;29495;49.970;20.842;2022-08-21T00:53:34;6.57;;;3.97;;
43841;SDS011;29495;49.970;20.842;2022-08-21T00:56:03;4.28;;;3.83;;
43841;SDS011;29495;49.970;20.842;2022-08-21T00:58:31;4.65;;;3.88;;
43841;SDS011;29495;49.970;20.842;2022-08-21T01:01:01;5.28;;;4.15;;
43841;SDS011;29495;49.970;20.842;2022-08-21T01:03:30;3.78;;;3.38;;
43841;SDS011;29495;49.970;20.842;2022-08-21T01:05:57;5.38;;;3.33;;
43841;SDS011;29495;49.970;20.842;2022-08-21T01:08:23;5.65;;;4.05;;
43841;SDS011;29495;49.970;20.842;2022-08-21T01:10:51;5.53;;;3.85;;
43841;SDS011;29495;49.970;20.842;2022-08-21T01:13:24;5.55;;;4.43;;
43841;SDS011;29495;49.970;20.842;2022-08-21T01:15:52;4.60;;;4.07;;
43841;SDS011;29495;49.970;20.842;2022-08-21T01:18:20;5.68;;;4.10;;
43841;SDS011;29495;49.970;20.842;2022-08-21T01:23:48;5.68;;;3.83;;
43841;SDS011;29495;49.970;20.842;2022-08-21T01:26:16;6.63;;;3.65;;
43841;SDS011;29495;49.970;20.842;2022-08-21T01:33:51;5.45;;;4.10;;
43841;SDS011;29495;49.970;20.842;2022-08-21T01:36:18;4.72;;;4.07;;
43841;SDS011;29495;49.970;20.842;2022-08-21T01:38:44;4.78;;;3.67;;
43841;SDS011;29495;49.970;20.842;2022-08-21T01:41:10;4.97;;;3.88;;
43841;SDS011;29495;49.970;20.842;2022-08-21T01:43:36;4.68;;;3.35;;
43841;SDS011;29495;49.970;20.842;2022-08-21T01:46:02;4.20;;;3.80;;
43841;SDS011;29495;49.970;20.842;2022-08-21T01:48:28;4.68;;;3.47;;
43841;SDS011;29495;49.970;20.842;2022-08-21T01:50:54;4.43;;;3.60;;
43841;SDS011;29495;49.970;20.842;2022-08-21T01:53:21;4.22;;;3.00;;
43841;SDS011;29495;49.970;20.842;2022-08-21T01:55:47;5.85;;;3.28;;
43841;SDS011;29495;49.970;20.842;2022-08-21T01:58:13;6.45;;;3.97;;
43841;SDS011;29495;49.970;20.842;2022-08-21T02:00:38;15.20;;;4.85;;
43841;SDS011;29495;49.970;20.842;2022-08-21T02:03:05;4.70;;;3.30;;
43841;SDS011;29495;49.970;20.842;2022-08-21T02:05:31;3.83;;;3.13;;
43841;SDS011;29495;49.970;20.842;2022-08-21T02:07:57;6.20;;;3.75;;
43841;SDS011;29495;49.970;20.842;2022-08-21T02:10:28;4.50;;;3.72;;
43841;SDS011;29495;49.970;20.842;2022-08-21T02:12:57;4.80;;;4.07;;
43841;SDS011;29495;49.970;20.842;2022-08-21T02:15:25;4.78;;;4.18;;
43841;SDS011;29495;49.970;20.842;2022-08-21T02:17:53;9.10;;;4.22;;
43841;SDS011;29495;49.970;20.842;2022-08-21T02:20:28;4.25;;;3.15;;
43841;SDS011;29495;49.970;20.842;2022-08-21T02:22:59;6.50;;;4.25;;
43841;SDS011;29495;49.970;20.842;2022-08-21T02:25:26;7.25;;;3.97;;
43841;SDS011;29495;49.970;20.842;2022-08-21T02:27:53;7.40;;;3.67;;
43841;SDS011;29495;49.970;20.842;2022-08-21T02:30:24;4.60;;;3.53;;
43841;SDS011;29495;49.970;20.842;2022-08-21T02:32:52;4.97;;;3.47;;
43841;SDS011;29495;49.970;20.842;2022-08-21T02:35:18;6.25;;;3.70;;
43841;SDS011;29495;49.970;20.842;2022-08-21T02:40:23;4.85;;;3.60;;
43841;SDS011;29495;49.970;20.842;2022-08-21T02:42:53;4.85;;;3.70;;
43841;SDS011;29495;49.970;20.842;2022-08-21T02:45:20;5.28;;;3.70;;
43841;SDS011;29495;49.970;20.842;2022-08-21T02:47:47;4.57;;;3.63;;
43841;SDS011;29495;49.970;20.842;2022-08-21T02:50:16;5.70;;;3.90;;
43841;SDS011;29495;49.970;20.842;2022-08-21T02:52:44;5.88;;;4.47;;
43841;SDS011;29495;49.970;20.842;2022-08-21T02:55:10;4.68;;;3.67;;
43841;SDS011;29495;49.970;20.842;2022-08-21T02:57:36;5.47;;;3.63;;
43841;SDS011;29495;49.970;20.842;2022-08-21T03:00:03;4.60;;;3.78;;
43841;SDS011;29495;49.970;20.842;2022-08-21T03:02:30;4.17;;;3.43;;
43841;SDS011;29495;49.970;20.842;2022-08-21T03:04:56;3.80;;;3.13;;
43841;SDS011;29495;49.970;20.842;2022-08-21T03:07:22;5.53;;;3.85;;
43841;SDS011;29495;49.970;20.842;2022-08-21T03:09:48;3.63;;;3.30;;
43841;SDS011;29495;49.970;20.842;2022-08-21T03:12:14;4.13;;;3.70;;
43841;SDS011;29495;49.970;20.842;2022-08-21T03:14:39;5.28;;;3.90;;
43841;SDS011;29495;49.970;20.842;2022-08-21T03:17:05;4.22;;;3.70;;
43841;SDS011;29495;49.970;20.842;2022-08-21T03:19:32;6.50;;;4.25;;
43841;SDS011;29495;49.970;20.842;2022-08-21T03:21:58;7.40;;;4.82;;
43841;SDS011;29495;49.970;20.842;2022-08-21T03:24:24;7.00;;;4.28;;
43841;SDS011;29495;49.970;20.842;2022-08-21T03:26:50;6.97;;;4.53;;
43841;SDS011;29495;49.970;20.842;2022-08-21T03:29:16;4.85;;;3.88;;
43841;SDS011;29495;49.970;20.842;2022-08-21T03:31:42;5.68;;;4.05;;
43841;SDS011;29495;49.970;20.842;2022-08-21T03:34:08;8.82;;;4.55;;
43841;SDS011;29495;49.970;20.842;2022-08-21T03:36:34;5.25;;;4.22;;
43841;SDS011;29495;49.970;20.842;2022-08-21T03:39:00;4.90;;;3.83;;
43841;SDS011;29495;49.970;20.842;2022-08-21T03:41:26;4.97;;;3.90;;
43841;SDS011;29495;49.970;20.842;2022-08-21T03:43:52;6.38;;;4.10;;
43841;SDS011;29495;49.970;20.842;2022-08-21T03:46:18;4.80;;;3.88;;
43841;SDS011;29495;49.970;20.842;2022-08-21T03:48:44;4.07;;;3.35;;
43841;SDS011;29495;49.970;20.842;2022-08-21T03:51:10;5.60;;;3.95;;
43841;SDS011;29495;49.970;20.842;2022-08-21T03:53:37;4.30;;;3.25;;
43841;SDS011;29495;49.970;20.842;2022-08-21T03:56:03;5.20;;;4.00;;
43841;SDS011;29495;49.970;20.842;2022-08-21T03:58:30;5.30;;;4.10;;
43841;SDS011;29495;49.970;20.842;2022-08-21T04:00:57;4.85;;;3.45;;
43841;SDS011;29495;49.970;20.842;2022-08-21T04:03:25;4.05;;;3.35;;
43841;SDS011;29495;49.970;20.842;2022-08-21T04:05:53;4.50;;;3.38;;
43841;SDS011;29495;49.970;20.842;2022-08-21T04:08:19;3.83;;;3.42;;
43841;SDS011;29495;49.970;20.842;2022-08-21T04:10:46;4.03;;;3.25;;
43841;SDS011;29495;49.970;20.842;2022-08-21T04:13:14;3.63;;;3.03;;
43841;SDS011;29495;49.970;20.842;2022-08-21T04:15:40;5.30;;;2.92;;
43841;SDS011;29495;49.970;20.842;2022-08-21T04:18:06;5.95;;;3.30;;
43841;SDS011;29495;49.970;20.842;2022-08-21T04:20:33;3.67;;;3.05;;
43841;SDS011;29495;49.970;20.842;2022-08-21T04:23:00;4.15;;;3.25;;
43841;SDS011;29495;49.970;20.842;2022-08-21T04:25:27;6.07;;;3.95;;
43841;SDS011;29495;49.970;20.842;2022-08-21T04:27:53;5.32;;;3.38;;
43841;SDS011;29495;49.970;20.842;2022-08-21T04:30:19;5.00;;;3.65;;
43841;SDS011;29495;49.970;20.842;2022-08-21T04:32:46;5.03;;;3.80;;
43841;SDS011;29495;49.970;20.842;2022-08-21T04:35:15;5.88;;;3.90;;
43841;SDS011;29495;49.970;20.842;2022-08-21T04:37:43;5.45;;;3.97;;
43841;SDS011;29495;49.970;20.842;2022-08-21T04:40:09;4.85;;;3.35;;
43841;SDS011;29495;49.970;20.842;2022-08-21T04:45:28;6.22;;;4.47;;
43841;SDS011;29495;49.970;20.842;2022-08-21T04:47:57;5.50;;;4.20;;
43841;SDS011;29495;49.970;20.842;2022-08-21T04:50:29;5.30;;;3.88;;
43841;SDS011;29495;49.970;20.842;2022-08-21T04:53:03;7.15;;;4.15;;
43841;SDS011;29495;49.970;20.842;2022-08-21T04:55:32;5.75;;;4.05;;
43841;SDS011;29495;49.970;20.842;2022-08-21T04:57:58;5.20;;;3.95;;
43841;SDS011;29495;49.970;20.842;2022-08-21T05:00:25;4.85;;;3.88;;
43841;SDS011;29495;49.970;20.842;2022-08-21T05:02:52;4.10;;;3.55;;
43841;SDS011;29495;49.970;20.842;2022-08-21T05:05:24;6.05;;;3.50;;
43841;SDS011;29495;49.970;20.842;2022-08-21T05:07:50;4.88;;;4.00;;
43841;SDS011;29495;49.970;20.842;2022-08-21T05:10:18;4.75;;;3.92;;
43841;SDS011;29495;49.970;20.842;2022-08-21T05:12:44;6.13;;;4.47;;
43841;SDS011;29495;49.970;20.842;2022-08-21T05:15:11;5.68;;;4.10;;
43841;SDS011;29495;49.970;20.842;2022-08-21T05:17:37;7.03;;;4.40;;
43841;SDS011;29495;49.970;20.842;2022-08-21T05:20:04;6.78;;;4.30;;
43841;SDS011;29495;49.970;20.842;2022-08-21T05:22:30;5.22;;;3.83;;
43841;SDS011;29495;49.970;20.842;2022-08-21T05:24:57;8.07;;;4.50;;
43841;SDS011;29495;49.970;20.842;2022-08-21T05:27:23;6.03;;;4.38;;
43841;SDS011;29495;49.970;20.842;2022-08-21T05:29:49;5.30;;;3.83;;
43841;SDS011;29495;49.970;20.842;2022-08-21T05:32:15;4.65;;;4.25;;
43841;SDS011;29495;49.970;20.842;2022-08-21T05:34:41;5.18;;;3.63;;
43841;SDS011;29495;49.970;20.842;2022-08-21T05:37:07;4.80;;;3.83;;
43841;SDS011;29495;49.970;20.842;2022-08-21T05:39:35;6.55;;;4.28;;
43841;SDS011;29495;49.970;20.842;2022-08-21T05:42:01;4.20;;;3.72;;
43841;SDS011;29495;49.970;20.842;2022-08-21T05:44:27;5.15;;;4.10;;
43841;SDS011;29495;49.970;20.842;2022-08-21T05:46:53;5.13;;;4.00;;
43841;SDS011;29495;49.970;20.842;2022-08-21T05:49:19;4.85;;;3.92;;
43841;SDS011;29495;49.970;20.842;2022-08-21T05:51:45;5.57;;;4.05;;
43841;SDS011;29495;49.970;20.842;2022-08-21T05:54:11;4.82;;;4.13;;
43841;SDS011;29495;49.970;20.842;2022-08-21T05:56:37;6.32;;;4.72;;
43841;SDS011;29495;49.970;20.842;2022-08-21T05:59:03;7.35;;;5.28;;
43841;SDS011;29495;49.970;20.842;2022-08-21T06:01:29;6.97;;;4.82;;
43841;SDS011;29495;49.970;20.842;2022-08-21T06:03:55;7.22;;;5.82;;
43841;SDS011;29495;49.970;20.842;2022-08-21T06:06:21;7.90;;;5.95;;
43841;SDS011;29495;49.970;20.842;2022-08-21T06:08:47;8.98;;;6.20;;
43841;SDS011;29495;49.970;20.842;2022-08-21T06:11:13;8.73;;;5.82;;
43841;SDS011;29495;49.970;20.842;2022-08-21T06:13:38;6.53;;;4.70;;
43841;SDS011;29495;49.970;20.842;2022-08-21T06:16:09;6.75;;;4.70;;
43841;SDS011;29495;49.970;20.842;2022-08-21T06:18:40;6.57;;;5.05;;
43841;SDS011;29495;49.970;20.842;2022-08-21T06:21:06;6.50;;;4.85;;
43841;SDS011;29495;49.970;20.842;2022-08-21T06:23:33;6.88;;;4.97;;
43841;SDS011;29495;49.970;20.842;2022-08-21T06:26:03;8.02;;;5.10;;
43841;SDS011;29495;49.970;20.842;2022-08-21T06:28:30;7.47;;;4.85;;
43841;SDS011;29495;49.970;20.842;2022-08-21T06:30:57;8.13;;;5.18;;
43841;SDS011;29495;49.970;20.842;2022-08-21T06:33:23;6.07;;;5.47;;
43841;SDS011;29495;49.970;20.842;2022-08-21T06:35:49;6.80;;;5.22;;
43841;SDS011;29495;49.970;20.842;2022-08-21T06:38:15;6.13;;;5.30;;
43841;SDS011;29495;49.970;20.842;2022-08-21T06:40:42;7.45;;;5.30;;
43841;SDS011;29495;49.970;20.842;2022-08-21T06:43:09;7.43;;;5.28;;
43841;SDS011;29495;49.970;20.842;2022-08-21T06:45:38;6.28;;;4.50;;
43841;SDS011;29495;49.970;20.842;2022-08-21T06:48:05;7.90;;;4.88;;
43841;SDS011;29495;49.970;20.842;2022-08-21T06:50:32;6.75;;;5.07;;
43841;SDS011;29495;49.970;20.842;2022-08-21T06:53:20;6.90;;;4.80;;
43841;SDS011;29495;49.970;20.842;2022-08-21T06:55:46;7.40;;;5.18;;
43841;SDS011;29495;49.970;20.842;2022-08-21T06:58:12;5.55;;;4.80;;
43841;SDS011;29495;49.970;20.842;2022-08-21T07:00:40;7.70;;;5.15;;
43841;SDS011;29495;49.970;20.842;2022-08-21T07:03:25;6.30;;;4.72;;
43841;SDS011;29495;49.970;20.842;2022-08-21T07:08:23;6.53;;;5.78;;
43841;SDS011;29495;49.970;20.842;2022-08-21T07:10:51;9.23;;;5.85;;
43841;SDS011;29495;49.970;20.842;2022-08-21T07:13:18;7.20;;;5.55;;
43841;SDS011;29495;49.970;20.842;2022-08-21T07:15:44;8.20;;;5.68;;
43841;SDS011;29495;49.970;20.842;2022-08-21T07:18:10;6.57;;;5.00;;
43841;SDS011;29495;49.970;20.842;2022-08-21T07:20:37;6.68;;;5.50;;
43841;SDS011;29495;49.970;20.842;2022-08-21T07:23:05;8.90;;;6.35;;
43841;SDS011;29495;49.970;20.842;2022-08-21T07:25:34;9.15;;;6.53;;
43841;SDS011;29495;49.970;20.842;2022-08-21T07:28:00;10.48;;;7.00;;
43841;SDS011;29495;49.970;20.842;2022-08-21T07:30:26;10.15;;;7.28;;
43841;SDS011;29495;49.970;20.842;2022-08-21T07:32:53;11.55;;;7.53;;
43841;SDS011;29495;49.970;20.842;2022-08-21T07:35:19;8.18;;;6.45;;
43841;SDS011;29495;49.970;20.842;2022-08-21T07:37:46;10.98;;;6.80;;
43841;SDS011;29495;49.970;20.842;2022-08-21T07:40:12;11.30;;;7.82;;
43841;SDS011;29495;49.970;20.842;2022-08-21T07:42:40;10.15;;;7.43;;
43841;SDS011;29495;49.970;20.842;2022-08-21T07:45:07;8.05;;;6.30;;
43841;SDS011;29495;49.970;20.842;2022-08-21T07:47:33;10.38;;;7.22;;
43841;SDS011;29495;49.970;20.842;2022-08-21T07:50:00;10.35;;;8.05;;
43841;SDS011;29495;49.970;20.842;2022-08-21T07:52:26;11.48;;;8.07;;
43841;SDS011;29495;49.970;20.842;2022-08-21T07:54:52;10.50;;;7.78;;
43841;SDS011;29495;49.970;20.842;2022-08-21T07:57:18;11.43;;;9.52;;
43841;SDS011;29495;49.970;20.842;2022-08-21T07:59:44;12.75;;;8.30;;
43841;SDS011;29495;49.970;20.842;2022-08-21T08:02:10;8.80;;;7.13;;
43841;SDS011;29495;49.970;20.842;2022-08-21T08:04:46;8.82;;;7.60;;
43841;SDS011;29495;49.970;20.842;2022-08-21T08:07:12;11.63;;;8.98;;
43841;SDS011;29495;49.970;20.842;2022-08-21T08:09:38;11.13;;;8.27;;
43841;SDS011;29495;49.970;20.842;2022-08-21T08:12:04;12.52;;;8.52;;
43841;SDS011;29495;49.970;20.842;2022-08-21T08:14:30;14.35;;;9.27;;
43841;SDS011;29495;49.970;20.842;2022-08-21T08:16:56;12.18;;;8.02;;
43841;SDS011;29495;49.970;20.842;2022-08-21T08:19:22;10.18;;;7.80;;
43841;SDS011;29495;49.970;20.842;2022-08-21T08:21:48;13.55;;;9.20;;
43841;SDS011;29495;49.970;20.842;2022-08-21T08:24:14;9.93;;;7.35;;
43841;SDS011;29495;49.970;20.842;2022-08-21T08:26:40;11.70;;;9.65;;
43841;SDS011;29495;49.970;20.842;2022-08-21T08:29:06;12.93;;;8.55;;
43841;SDS011;29495;49.970;20.842;2022-08-21T08:31:32;10.57;;;7.30;;
43841;SDS011;29495;49.970;20.842;2022-08-21T08:33:58;11.77;;;8.68;;
43841;SDS011;29495;49.970;20.842;2022-08-21T08:36:30;10.50;;;8.02;;
43841;SDS011;29495;49.970;20.842;2022-08-21T08:38:59;11.20;;;8.60;;
43841;SDS011;29495;49.970;20.842;2022-08-21T08:41:26;10.27;;;7.57;;
43841;SDS011;29495;49.970;20.842;2022-08-21T08:43:53;10.70;;;8.40;;
43841;SDS011;29495;49.970;20.842;2022-08-21T08:46:26;10.63;;;8.40;;
43841;SDS011;29495;49.970;20.842;2022-08-21T08:54:28;11.13;;;8.77;;
43841;SDS011;29495;49.970;20.842;2022-08-21T08:57:00;11.27;;;8.05;;
43841;SDS011;29495;49.970;20.842;2022-08-21T08:59:41;11.23;;;8.70;;
43841;SDS011;29495;49.970;20.842;2022-08-21T09:02:10;11.85;;;8.70;;
43841;SDS011;29495;49.970;20.842;2022-08-21T09:04:38;9.93;;;7.53;;
43841;SDS011;29495;49.970;20.842;2022-08-21T09:07:13;8.25;;;7.18;;
43841;SDS011;29495;49.970;20.842;2022-08-21T09:12:52;11.90;;;8.88;;
43841;SDS011;29495;49.970;20.842;2022-08-21T09:18:17;12.20;;;7.75;;
43841;SDS011;29495;49.970;20.842;2022-08-21T09:24:05;11.30;;;8.05;;
43841;SDS011;29495;49.970;20.842;2022-08-21T09:27:09;10.60;;;8.75;;
43841;SDS011;29495;49.970;20.842;2022-08-21T09:29:40;10.52;;;7.68;;
43841;SDS011;29495;49.970;20.842;2022-08-21T09:34:54;15.63;;;9.25;;
43841;SDS011;29495;49.970;20.842;2022-08-21T09:37:20;12.77;;;9.95;;
43841;SDS011;29495;49.970;20.842;2022-08-21T09:39:46;11.82;;;8.93;;
43841;SDS011;29495;49.970;20.842;2022-08-21T09:42:12;11.43;;;8.80;;
43841;SDS011;29495;49.970;20.842;2022-08-21T09:45:05;11.88;;;8.68;;
43841;SDS011;29495;49.970;20.842;2022-08-21T09:47:39;12.53;;;7.80;;
43841;SDS011;29495;49.970;20.842;2022-08-21T09:50:07;10.80;;;8.25;;
43841;SDS011;29495;49.970;20.842;2022-08-21T09:52:41;12.43;;;9.18;;
43841;SDS011;29495;49.970;20.842;2022-08-21T09:55:18;11.32;;;9.50;;
43841;SDS011;29495;49.970;20.842;2022-08-21T09:58:15;12.30;;;9.15;;
43841;SDS011;29495;49.970;20.842;2022-08-21T10:00:42;8.55;;;7.68;;
43841;SDS011;29495;49.970;20.842;2022-08-21T10:03:10;9.55;;;6.90;;
43841;SDS011;29495;49.970;20.842;2022-08-21T10:05:37;10.32;;;7.97;;
43841;SDS011;29495;49.970;20.842;2022-08-21T10:08:04;12.05;;;7.80;;
43841;SDS011;29495;49.970;20.842;2022-08-21T10:10:32;12.27;;;7.03;;
43841;SDS011;29495;49.970;20.842;2022-08-21T10:18:22;12.85;;;7.57;;
43841;SDS011;29495;49.970;20.842;2022-08-21T10:21:22;9.98;;;8.10;;
43841;SDS011;29495;49.970;20.842;2022-08-21T10:26:28;10.65;;;7.85;;
43841;SDS011;29495;49.970;20.842;2022-08-21T10:31:42;10.88;;;7.22;;
43841;SDS011;29495;49.970;20.842;2022-08-21T10:39:35;9.73;;;8.10;;
43841;SDS011;29495;49.970;20.842;2022-08-21T10:47:36;8.70;;;6.82;;
43841;SDS011;29495;49.970;20.842;2022-08-21T10:53:19;7.55;;;6.18;;
43841;SDS011;29495;49.970;20.842;2022-08-21T10:55:55;10.30;;;7.53;;
43841;SDS011;29495;49.970;20.842;2022-08-21T10:58:33;9.88;;;6.47;;
43841;SDS011;29495;49.970;20.842;2022-08-21T11:01:12;10.18;;;6.95;;
43841;SDS011;29495;49.970;20.842;2022-08-21T11:03:43;9.77;;;6.82;;
43841;SDS011;29495;49.970;20.842;2022-08-21T11:06:13;12.30;;;8.52;;
43841;SDS011;29495;49.970;20.842;2022-08-21T11:08:55;9.55;;;7.60;;
43841;SDS011;29495;49.970;20.842;2022-08-21T11:11:35;8.27;;;6.45;;
43841;SDS011;29495;49.970;20.842;2022-08-21T11:14:16;8.05;;;7.22;;
43841;SDS011;29495;49.970;20.842;2022-08-21T11:17:10;9.45;;;7.80;;
43841;SDS011;29495;49.970;20.842;2022-08-21T11:25:02;10.70;;;7.88;;
43841;SDS011;29495;49.970;20.842;2022-08-21T11:27:46;10.13;;;7.43;;
43841;SDS011;29495;49.970;20.842;2022-08-21T11:30:18;10.55;;;7.82;;
43841;SDS011;29495;49.970;20.842;2022-08-21T11:35:33;9.40;;;6.70;;
43841;SDS011;29495;49.970;20.842;2022-08-21T11:44:31;8.20;;;7.20;;
43841;SDS011;29495;49.970;20.842;2022-08-21T11:47:19;11.95;;;6.82;;
43841;SDS011;29495;49.970;20.842;2022-08-21T11:49:57;7.50;;;6.63;;
43841;SDS011;29495;49.970;20.842;2022-08-21T11:52:38;10.48;;;6.47;;
43841;SDS011;29495;49.970;20.842;2022-08-21T11:55:31;10.30;;;7.45;;
43841;SDS011;29495;49.970;20.842;2022-08-21T12:01:01;10.90;;;7.28;;
43841;SDS011;29495;49.970;20.842;2022-08-21T12:03:35;8.88;;;6.72;;
43841;SDS011;29495;49.970;20.842;2022-08-21T12:06:11;8.35;;;5.88;;
43841;SDS011;29495;49.970;20.842;2022-08-21T12:08:40;6.95;;;5.35;;
43841;SDS011;29495;49.970;20.842;2022-08-21T12:11:09;6.65;;;5.53;;
43841;SDS011;29495;49.970;20.842;2022-08-21T12:16:34;5.50;;;4.82;;
43841;SDS011;29495;49.970;20.842;2022-08-21T12:19:09;6.30;;;5.65;;
43841;SDS011;29495;49.970;20.842;2022-08-21T12:26:54;8.52;;;6.53;;
43841;SDS011;29495;49.970;20.842;2022-08-21T12:29:32;5.72;;;4.93;;
43841;SDS011;29495;49.970;20.842;2022-08-21T12:32:03;6.13;;;4.90;;
43841;SDS011;29495;49.970;20.842;2022-08-21T12:34:37;6.78;;;4.90;;
43841;SDS011;29495;49.970;20.842;2022-08-21T12:37:15;7.47;;;5.90;;
43841;SDS011;29495;49.970;20.842;2022-08-21T12:39:54;8.43;;;7.18;;
43841;SDS011;29495;49.970;20.842;2022-08-21T12:42:30;7.95;;;6.80;;
43841;SDS011;29495;49.970;20.842;2022-08-21T12:45:13;8.48;;;5.97;;
43841;SDS011;29495;49.970;20.842;2022-08-21T12:48:10;6.97;;;6.28;;
43841;SDS011;29495;49.970;20.842;2022-08-21T12:55:51;9.05;;;6.45;;
43841;SDS011;29495;49.970;20.842;2022-08-21T12:58:22;7.32;;;5.95;;
43841;SDS011;29495;49.970;20.842;2022-08-21T13:00:50;7.57;;;6.38;;
43841;SDS011;29495;49.970;20.842;2022-08-21T13:03:22;9.18;;;5.82;;
43841;SDS011;29495;49.970;20.842;2022-08-21T13:05:48;5.63;;;5.03;;
43841;SDS011;29495;49.970;20.842;2022-08-21T13:10:44;7.32;;;6.15;;
43841;SDS011;29495;49.970;20.842;2022-08-21T13:13:17;6.35;;;5.55;;
43841;SDS011;29495;49.970;20.842;2022-08-21T13:15:46;8.20;;;6.82;;
43841;SDS011;29495;49.970;20.842;2022-08-21T13:18:19;8.05;;;6.60;;
43841;SDS011;29495;49.970;20.842;2022-08-21T13:20:47;8.00;;;6.88;;
43841;SDS011;29495;49.970;20.842;2022-08-21T13:25:46;9.57;;;6.80;;
43841;SDS011;29495;49.970;20.842;2022-08-21T13:28:12;8.93;;;6.70;;
43841;SDS011;29495;49.970;20.842;2022-08-21T13:30:50;9.05;;;7.50;;
43841;SDS011;29495;49.970;20.842;2022-08-21T13:33:19;9.50;;;6.10;;
43841;SDS011;29495;49.970;20.842;2022-08-21T13:38:51;9.40;;;6.03;;
43841;SDS011;29495;49.970;20.842;2022-08-21T13:41:21;7.05;;;5.95;;
43841;SDS011;29495;49.970;20.842;2022-08-21T13:46:39;6.47;;;5.77;;
43841;SDS011;29495;49.970;20.842;2022-08-21T13:49:06;9.43;;;6.70;;
43841;SDS011;29495;49.970;20.842;2022-08-21T13:51:35;10.57;;;5.13;;
43841;SDS011;29495;49.970;20.842;2022-08-21T13:54:13;7.18;;;5.70;;
43841;SDS011;29495;49.970;20.842;2022-08-21T13:59:07;8.63;;;6.40;;
43841;SDS011;29495;49.970;20.842;2022-08-21T14:01:37;6.65;;;5.43;;
43841;SDS011;29495;49.970;20.842;2022-08-21T14:04:20;6.30;;;5.35;;
43841;SDS011;29495;49.970;20.842;2022-08-21T14:06:49;7.35;;;5.70;;
43841;SDS011;29495;49.970;20.842;2022-08-21T14:09:33;6.15;;;5.55;;
43841;SDS011;29495;49.970;20.842;2022-08-21T14:12:13;6.53;;;5.88;;
43841;SDS011;29495;49.970;20.842;2022-08-21T14:14:44;8.35;;;5.40;;
43841;SDS011;29495;49.970;20.842;2022-08-21T14:17:14;8.25;;;5.72;;
43841;SDS011;29495;49.970;20.842;2022-08-21T14:19:55;9.00;;;6.35;;
43841;SDS011;29495;49.970;20.842;2022-08-21T14:27:40;8.23;;;5.15;;
43841;SDS011;29495;49.970;20.842;2022-08-21T14:30:21;8.05;;;5.47;;
43841;SDS011;29495;49.970;20.842;2022-08-21T14:32:47;5.78;;;3.85;;
43841;SDS011;29495;49.970;20.842;2022-08-21T14:35:13;5.82;;;4.40;;
43841;SDS011;29495;49.970;20.842;2022-08-21T14:37:43;7.22;;;6.10;;
43841;SDS011;29495;49.970;20.842;2022-08-21T14:40:10;7.55;;;5.88;;
43841;SDS011;29495;49.970;20.842;2022-08-21T14:42:37;7.90;;;6.00;;
43841;SDS011;29495;49.970;20.842;2022-08-21T14:47:55;7.90;;;6.78;;
43841;SDS011;29495;49.970;20.842;2022-08-21T14:50:22;9.40;;;8.30;;
43841;SDS011;29495;49.970;20.842;2022-08-21T14:52:48;12.60;;;7.88;;
43841;SDS011;29495;49.970;20.842;2022-08-21T14:55:14;9.93;;;6.75;;
43841;SDS011;29495;49.970;20.842;2022-08-21T14:57:48;8.90;;;6.00;;
43841;SDS011;29495;49.970;20.842;2022-08-21T15:00:17;8.90;;;6.38;;
43841;SDS011;29495;49.970;20.842;2022-08-21T15:02:50;8.18;;;5.97;;
43841;SDS011;29495;49.970;20.842;2022-08-21T15:05:16;7.47;;;5.78;;
43841;SDS011;29495;49.970;20.842;2022-08-21T15:07:43;8.85;;;5.75;;
43841;SDS011;29495;49.970;20.842;2022-08-21T15:10:09;9.13;;;5.57;;
43841;SDS011;29495;49.970;20.842;2022-08-21T15:12:36;10.57;;;6.13;;
43841;SDS011;29495;49.970;20.842;2022-08-21T15:15:05;6.57;;;4.93;;
43841;SDS011;29495;49.970;20.842;2022-08-21T15:17:32;5.95;;;4.28;;
43841;SDS011;29495;49.970;20.842;2022-08-21T15:19:59;7.50;;;4.80;;
43841;SDS011;29495;49.970;20.842;2022-08-21T15:22:25;6.35;;;4.28;;
43841;SDS011;29495;49.970;20.842;2022-08-21T15:24:52;7.43;;;4.65;;
43841;SDS011;29495;49.970;20.842;2022-08-21T15:27:18;6.28;;;4.60;;
43841;SDS011;29495;49.970;20.842;2022-08-21T15:29:44;6.70;;;4.30;;
43841;SDS011;29495;49.970;20.842;2022-08-21T15:34:48;4.32;;;3.88;;
43841;SDS011;29495;49.970;20.842;2022-08-21T15:37:18;5.15;;;3.47;;
43841;SDS011;29495;49.970;20.842;2022-08-21T15:39:45;4.55;;;3.00;;
43841;SDS011;29495;49.970;20.842;2022-08-21T15:42:11;5.13;;;3.55;;
43841;SDS011;29495;49.970;20.842;2022-08-21T15:44:41;4.32;;;3.35;;
43841;SDS011;29495;49.970;20.842;2022-08-21T15:47:15;5.95;;;3.80;;
43841;SDS011;29495;49.970;20.842;2022-08-21T15:49:44;5.57;;;2.90;;
43841;SDS011;29495;49.970;20.842;2022-08-21T15:52:14;4.07;;;2.90;;
43841;SDS011;29495;49.970;20.842;2022-08-21T15:54:44;4.93;;;3.38;;
43841;SDS011;29495;49.970;20.842;2022-08-21T15:57:15;2.35;;;2.15;;
43841;SDS011;29495;49.970;20.842;2022-08-21T15:59:53;3.72;;;2.78;;
43841;SDS011;29495;49.970;20.842;2022-08-21T16:04:49;3.22;;;2.45;;
43841;SDS011;29495;49.970;20.842;2022-08-21T16:07:15;2.78;;;2.42;;
43841;SDS011;29495;49.970;20.842;2022-08-21T16:09:41;2.97;;;2.30;;
43841;SDS011;29495;49.970;20.842;2022-08-21T16:12:07;3.17;;;2.22;;
43841;SDS011;29495;49.970;20.842;2022-08-21T16:14:38;2.13;;;1.70;;
43841;SDS011;29495;49.970;20.842;2022-08-21T16:17:04;3.28;;;2.42;;
43841;SDS011;29495;49.970;20.842;2022-08-21T16:19:31;4.47;;;2.42;;
43841;SDS011;29495;49.970;20.842;2022-08-21T16:21:58;2.03;;;1.80;;
43841;SDS011;29495;49.970;20.842;2022-08-21T16:24:24;2.50;;;2.30;;
43841;SDS011;29495;49.970;20.842;2022-08-21T16:26:50;2.08;;;1.88;;
43841;SDS011;29495;49.970;20.842;2022-08-21T16:29:16;1.98;;;1.80;;
43841;SDS011;29495;49.970;20.842;2022-08-21T16:31:43;3.20;;;2.30;;
43841;SDS011;29495;49.970;20.842;2022-08-21T16:34:11;2.10;;;1.90;;
43841;SDS011;29495;49.970;20.842;2022-08-21T16:36:40;1.90;;;1.70;;
43841;SDS011;29495;49.970;20.842;2022-08-21T16:39:06;2.85;;;2.25;;